Ana Sayfa
METAR-TAF:

METAR-TAF

Havaalanları :

Dayton, Ohio, Amerika Birleşik Devletleri

Enlem: 39-54-22N, Boylam: 084-13-07W, yükseklik: 307 m

Güncel hava durumu gözlemi

Rapor saat 23:56 UTC de 32 dakika önce yapıldı.
Rüzgar kuzey/kuzeydoğudan 10 kt
Sıcaklık 21°C
Nem 53%
Basınç 1021 hPa
Görüş mesafesi: 16.1 km
4500 ft yükseklikte az bulutlu
6500 ft yükseklikte az bulutlu

METAR: KDAY 232356Z 02010KT 10SM FEW045 FEW065 21/11 A3016 RMK AO2 SLP207 T02110106 10256 20211 53006

Saat: 20:28 (00:28 UTC)

Tahmin

Rapor saat 23:38 UTC de 50 dakika önce yapıldı.
Ayın 24'si saat 00 UTC'den ayın 24'si saat 24 UTC'ye kadar geçerli Tahmin
Rüzgar kuzey/kuzeydoğudan 10 kt
Görüş mesafesi: 10 km
5000 ft yükseklikte az bulutlu
Ayın 24'si saat 0300 UTC'den
Rüzgar kuzeydoğudan 7 kt
Görüş mesafesi: 10 km
Açık gökyüzü

TAF: KDAY 232338Z 2400/2424 03010KT P6SM FEW050 FM240300 04007KT P6SM SKC

4.000'den fazla havaalanı için hava durumu gözlemleri ve tahminleri (METAR ve TAF raporları).

Kullanılabilir istasyonlar harita üzerinde sarı ve kırmızı noktalarla gösterilir.

İstasyonun adını görmek için fareyi noktanın üzerinde gezdirin.

Sonrasında hava gözlem ve tahminlerini görmek için tıklayın.

Haritayı değiştirmek için: yaklaştırmak için siyah artı işaretli yeşil düğmeye ve uzaklaştırmak için de eksi işaretli düğmeye hızla tıklayın; bitişik haritalar için yeşil okları kullanın.


METAR-TAF: